createdAt,value
2019-04-16T00:02:02.184Z,99.90
2019-04-16T00:07:05.828Z,99.90
2019-04-16T00:12:10.541Z,99.90
2019-04-16T00:16:56.356Z,99.90
2019-04-16T00:22:05.873Z,99.90
2019-04-16T00:26:57.992Z,99.90
2019-04-16T00:31:43.391Z,99.90
2019-04-16T00:36:29.057Z,99.90
2019-04-16T00:41:14.790Z,99.90
2019-04-16T00:46:00.578Z,99.90
2019-04-16T00:50:46.423Z,99.90
2019-04-16T00:55:32.133Z,99.90
2019-04-16T01:00:17.949Z,99.90
2019-04-16T01:05:03.596Z,99.90
2019-04-16T01:09:49.305Z,99.90
2019-04-16T01:14:35.011Z,99.90
2019-04-16T01:19:20.695Z,99.90
2019-04-16T01:24:06.519Z,99.90
2019-04-16T01:28:57.545Z,99.90
2019-04-16T01:34:05.125Z,99.90
2019-04-16T01:39:10.923Z,99.90
2019-04-16T01:43:44.543Z,99.90
2019-04-16T01:48:30.269Z,99.90
2019-04-16T01:53:18.345Z,99.90
2019-04-16T01:58:03.934Z,99.90
2019-04-16T02:02:49.745Z,99.90
2019-04-16T02:07:35.399Z,99.90
2019-04-16T02:12:21.159Z,99.90
2019-04-16T02:17:07.045Z,99.90
2019-04-16T02:21:52.851Z,99.90
2019-04-16T02:26:38.566Z,99.90
2019-04-16T02:31:24.236Z,99.90
2019-04-16T02:36:10.114Z,99.90
2019-04-16T02:40:55.844Z,99.90
2019-04-16T02:45:41.505Z,99.90
2019-04-16T02:50:37.190Z,99.90
2019-04-16T02:55:28.668Z,99.90
2019-04-16T03:00:35.958Z,99.90
2019-04-16T03:05:30.905Z,99.90
2019-04-16T03:10:16.864Z,99.90
2019-04-16T03:15:02.823Z,99.90
2019-04-16T03:19:51.447Z,99.90
2019-04-16T03:24:37.592Z,99.90
2019-04-16T03:29:24.302Z,99.90
2019-04-16T03:34:10.054Z,99.90
2019-04-16T03:38:55.732Z,99.90
2019-04-16T03:43:41.524Z,99.90
2019-04-16T03:48:27.244Z,99.90
2019-04-16T03:53:16.305Z,99.90
2019-04-16T03:58:05.221Z,99.90
2019-04-16T04:02:47.755Z,99.90
2019-04-16T04:07:33.466Z,99.90
2019-04-16T04:12:19.200Z,99.90
2019-04-16T04:17:06.609Z,99.90
2019-04-16T04:21:53.690Z,99.90
2019-04-16T04:26:42.226Z,99.90
2019-04-16T04:31:31.992Z,99.90
2019-04-16T04:36:14.407Z,99.90
2019-04-16T04:41:00.285Z,99.90
2019-04-16T04:45:45.986Z,99.90
2019-04-16T04:50:32.379Z,99.90
2019-04-16T04:55:19.057Z,99.90
2019-04-16T05:00:08.394Z,99.90
2019-04-16T05:05:05.548Z,99.90
2019-04-16T05:09:51.321Z,99.90
2019-04-16T05:14:40.139Z,99.90
2019-04-16T05:19:25.954Z,99.90
2019-04-16T05:24:11.688Z,99.90
2019-04-16T05:29:16.561Z,99.90
2019-04-16T05:34:02.245Z,99.90
2019-04-16T05:38:46.766Z,99.90
2019-04-16T05:43:32.685Z,99.90
2019-04-16T05:48:18.523Z,99.90
2019-04-16T05:53:08.369Z,99.90
2019-04-16T05:57:57.924Z,99.90
2019-04-16T06:02:42.527Z,99.90
2019-04-16T06:07:28.289Z,99.90
2019-04-16T06:12:14.133Z,99.90
2019-04-16T06:17:11.438Z,99.90
2019-04-16T06:22:30.040Z,99.90
2019-04-16T06:27:37.645Z,99.90
2019-04-16T06:32:58.741Z,99.90
2019-04-16T06:38:12.538Z,99.90
2019-04-16T06:43:04.785Z,99.90
2019-04-16T06:48:24.422Z,99.90
2019-04-16T06:53:38.487Z,99.90
2019-04-16T06:58:50.231Z,99.90
2019-04-16T07:03:39.400Z,99.90
2019-04-16T07:08:49.790Z,99.90
2019-04-16T07:13:33.158Z,99.90
2019-04-16T07:18:20.733Z,99.90
2019-04-16T07:23:06.297Z,99.90
2019-04-16T07:28:25.685Z,99.90
2019-04-16T07:33:32.002Z,99.90
2019-04-16T07:38:35.204Z,99.90
2019-04-16T07:43:37.391Z,99.90
2019-04-16T07:48:40.683Z,99.90
2019-04-16T07:53:47.133Z,99.90
2019-04-16T07:58:29.408Z,99.90
2019-04-16T08:03:15.092Z,99.90
2019-04-16T08:08:00.811Z,99.90
2019-04-16T08:12:50.142Z,99.90
2019-04-16T08:17:36.011Z,99.90
2019-04-16T08:22:21.886Z,99.90
2019-04-16T08:27:09.888Z,99.90
2019-04-16T08:31:55.720Z,99.90
2019-04-16T08:36:41.616Z,99.90
2019-04-16T08:41:27.896Z,99.90
2019-04-16T08:46:14.078Z,99.90
2019-04-16T08:51:00.122Z,99.90
2019-04-16T08:55:45.789Z,91.70
2019-04-16T09:00:32.790Z,90.70
2019-04-16T09:05:18.542Z,92.40
2019-04-16T09:10:17.462Z,96.00
2019-04-16T09:14:55.882Z,97.10
2019-04-16T09:19:43.250Z,94.80
2019-04-16T09:24:50.763Z,93.40
2019-04-16T09:29:53.938Z,85.80
2019-04-16T09:35:08.099Z,73.60
2019-04-16T09:40:15.487Z,69.80
2019-04-16T09:44:49.288Z,66.70
2019-04-16T09:49:37.597Z,65.60
2019-04-16T09:54:22.526Z,66.00
2019-04-16T09:59:16.768Z,59.60
2019-04-16T10:04:02.565Z,70.60
2019-04-16T10:08:49.588Z,62.40
2019-04-16T10:13:36.240Z,68.40
2019-04-16T10:18:23.208Z,63.80
2019-04-16T10:23:15.186Z,66.00
2019-04-16T10:28:08.062Z,62.50
2019-04-16T10:32:54.834Z,60.20
2019-04-16T10:37:40.950Z,67.10
2019-04-16T10:42:46.630Z,66.60
2019-04-16T10:47:57.653Z,63.20
2019-04-16T10:53:03.350Z,62.80
2019-04-16T10:58:14.176Z,68.10
2019-04-16T11:03:04.333Z,62.40
2019-04-16T11:07:51.163Z,65.10
2019-04-16T11:12:37.074Z,60.00
2019-04-16T11:17:24.790Z,59.00
2019-04-16T11:22:11.472Z,57.20
2019-04-16T11:26:57.710Z,56.80
2019-04-16T11:32:08.431Z,55.10
2019-04-16T11:36:54.659Z,54.60
2019-04-16T11:41:41.023Z,56.80
2019-04-16T11:46:27.256Z,54.70
2019-04-16T11:51:13.162Z,55.40
2019-04-16T11:55:59.281Z,54.90
2019-04-16T12:00:54.934Z,55.00
2019-04-16T12:05:58.389Z,54.70
2019-04-16T12:11:08.424Z,53.40
2019-04-16T12:16:13.464Z,49.30
2019-04-16T12:21:03.958Z,49.90
2019-04-16T12:26:10.558Z,48.20
2019-04-16T12:31:17.189Z,49.30
2019-04-16T12:36:32.191Z,46.00
2019-04-16T12:41:40.866Z,44.70
2019-04-16T12:46:48.708Z,47.10
2019-04-16T12:51:47.823Z,48.30
2019-04-16T12:57:04.568Z,47.80
2019-04-16T13:02:12.211Z,48.50
2019-04-16T13:07:01.832Z,47.70
2019-04-16T13:12:08.461Z,45.20
2019-04-16T13:17:03.417Z,42.10
2019-04-16T13:21:52.904Z,41.30
2019-04-16T13:26:55.943Z,37.70
2019-04-16T13:31:42.037Z,40.40
2019-04-16T13:36:29.430Z,42.40
2019-04-16T13:41:15.524Z,42.20
2019-04-16T13:46:04.102Z,41.60
2019-04-16T13:51:02.142Z,38.70
2019-04-16T13:56:06.778Z,38.80
2019-04-16T14:00:57.739Z,42.30
2019-04-16T14:05:43.746Z,46.50
2019-04-16T14:10:30.107Z,46.80
2019-04-16T14:15:30.836Z,44.40
2019-04-16T14:20:04.187Z,47.40
2019-04-16T14:24:50.390Z,43.50
2019-04-16T14:29:38.971Z,42.00
2019-04-16T14:34:43.291Z,38.20
2019-04-16T14:39:35.701Z,37.80
2019-04-16T14:44:22.792Z,39.30
2019-04-16T14:49:08.824Z,40.40
2019-04-16T14:54:25.650Z,38.00
2019-04-16T14:59:35.244Z,37.50
2019-04-16T15:04:45.935Z,40.00
2019-04-16T15:09:40.123Z,38.40
2019-04-16T15:14:31.650Z,40.10
2019-04-16T15:19:36.197Z,39.80
2019-04-16T15:24:36.253Z,42.10
2019-04-16T15:29:56.650Z,42.20
2019-04-16T15:34:43.259Z,43.10
2019-04-16T15:39:42.019Z,46.40
2019-04-16T15:44:46.849Z,44.90
2019-04-16T15:49:40.294Z,47.00
2019-04-16T15:54:56.973Z,50.40
2019-04-16T16:00:13.656Z,48.80
2019-04-16T16:05:27.255Z,50.50
2019-04-16T16:10:17.359Z,52.00
2019-04-16T16:15:07.613Z,51.80
2019-04-16T16:19:51.401Z,53.10
2019-04-16T16:24:41.998Z,55.50
2019-04-16T16:29:27.298Z,56.80
2019-04-16T16:34:14.348Z,56.50
2019-04-16T16:39:00.103Z,55.60
2019-04-16T16:43:47.033Z,55.20
2019-04-16T16:48:33.047Z,55.10
2019-04-16T16:53:33.792Z,54.90
2019-04-16T16:58:41.376Z,55.20
2019-04-16T17:03:53.100Z,55.30
2019-04-16T17:08:39.947Z,56.40
2019-04-16T17:13:25.796Z,57.20
2019-04-16T17:18:11.627Z,58.70
2019-04-16T17:22:58.343Z,57.40
2019-04-16T17:27:51.179Z,58.80
2019-04-16T17:32:31.700Z,59.80
2019-04-16T17:37:36.817Z,59.90
2019-04-16T17:42:28.954Z,60.00
2019-04-16T17:47:51.782Z,66.20
2019-04-16T17:52:44.653Z,67.60
2019-04-16T17:57:38.400Z,59.40
2019-04-16T18:02:47.522Z,64.60
2019-04-16T18:07:52.517Z,66.30
2019-04-16T18:13:00.667Z,67.80
2019-04-16T18:18:01.974Z,67.80
2019-04-16T18:23:07.011Z,69.30
2019-04-16T18:28:05.394Z,69.90
2019-04-16T18:33:07.508Z,70.40
2019-04-16T18:38:00.182Z,73.10
2019-04-16T18:42:53.533Z,71.90
2019-04-16T18:47:44.038Z,71.20
2019-04-16T18:52:29.794Z,72.00
2019-04-16T18:57:15.942Z,76.20
2019-04-16T19:02:22.359Z,73.00
2019-04-16T19:07:08.556Z,73.00
2019-04-16T19:11:54.690Z,75.10
2019-04-16T19:16:40.394Z,78.60
2019-04-16T19:21:30.845Z,81.00
2019-04-16T19:26:16.653Z,77.70
2019-04-16T19:31:03.271Z,81.30
2019-04-16T19:35:51.882Z,80.10
2019-04-16T19:40:36.567Z,81.00
2019-04-16T19:45:23.187Z,79.90
2019-04-16T19:50:09.716Z,87.90
2019-04-16T19:54:56.091Z,90.50
2019-04-16T19:59:46.362Z,92.40
2019-04-16T20:04:31.042Z,95.00
2019-04-16T20:09:17.669Z,95.30
2019-04-16T20:14:04.032Z,99.90
2019-04-16T20:18:51.506Z,99.90
2019-04-16T20:23:38.696Z,99.30
2019-04-16T20:28:24.724Z,99.90
2019-04-16T20:33:10.917Z,99.90
2019-04-16T20:37:57.012Z,99.90
2019-04-16T20:42:43.256Z,99.90
2019-04-16T20:47:29.367Z,99.90
2019-04-16T20:52:15.273Z,99.90
2019-04-16T20:57:01.279Z,99.90
2019-04-16T21:01:47.157Z,99.90
2019-04-16T21:06:33.140Z,99.90
2019-04-16T21:11:18.907Z,99.90
2019-04-16T21:16:04.689Z,99.90
2019-04-16T21:20:51.218Z,99.90
2019-04-16T21:25:37.861Z,99.90
2019-04-16T21:30:23.763Z,99.90
2019-04-16T21:35:15.490Z,99.90
2019-04-16T21:40:02.623Z,99.90
2019-04-16T21:44:48.440Z,99.90
2019-04-16T21:49:39.048Z,99.90
2019-04-16T21:54:21.550Z,99.90
2019-04-16T21:59:07.615Z,99.90
2019-04-16T22:03:58.974Z,99.90
2019-04-16T22:08:44.740Z,99.90
2019-04-16T22:13:30.360Z,99.90
2019-04-16T22:18:16.162Z,99.90
2019-04-16T22:23:01.888Z,99.90
2019-04-16T22:27:47.570Z,99.90
2019-04-16T22:32:33.249Z,99.90
2019-04-16T22:37:19.067Z,99.90
2019-04-16T22:42:12.111Z,99.90
2019-04-16T22:47:03.116Z,99.90
2019-04-16T22:51:48.852Z,99.90
2019-04-16T22:56:52.209Z,99.90
2019-04-16T23:01:41.735Z,99.90
2019-04-16T23:06:26.398Z,99.90
2019-04-16T23:11:12.161Z,99.90
2019-04-16T23:15:57.951Z,99.90
2019-04-16T23:20:44.847Z,99.90
2019-04-16T23:25:30.601Z,99.90
2019-04-16T23:30:18.466Z,99.90
2019-04-16T23:35:09.763Z,99.90
2019-04-16T23:39:51.354Z,99.90
2019-04-16T23:44:58.667Z,99.90
2019-04-16T23:49:58.724Z,99.90
2019-04-16T23:54:52.554Z,99.90
2019-04-16T23:59:53.358Z,99.90
